Skrydstrup, Denmark
Current Conditions -  °F | °C
As of 7:20 AM on Friday 31 Oct 2014 (Local Time) from EKSP Reporting Station
Moderate Fog Moderate Fog  
Wind Chill: 50°   Ceiling: 200
Heat Index: 50°   Visibility: 0.25mi
Dew Point: 50°   Wind: 6mph
Humidity: 100%   Direction: 150°SSE
Pressure: 30.15"   Gusts: NA
Location:  55.24°N, 9.25°E
Report Text: EKSP 310620Z 15005KT 120V190 0400 R10/1200VP2000N R28/1300VP2000DFG VV002 10/10 Q1021 TEMPO 2000
Loading
Personal Weather Stations






























Interactive Weather Map
Tropical Storm Tracking
New forecast layout! Learn more

10-Day Weather Forecast

Advertisements
Track Severe Weather on mobile